sensor_id;sensor_type;location;lat;lon;timestamp;temperature;humidity
17879;DHT22;9065;51.050;13.758;2022-08-06T00:02:29;19.00;99.90
17879;DHT22;9065;51.050;13.758;2022-08-06T00:04:57;19.00;99.90
17879;DHT22;9065;51.050;13.758;2022-08-06T00:07:25;19.00;99.90
17879;DHT22;9065;51.050;13.758;2022-08-06T00:09:53;18.90;99.90
17879;DHT22;9065;51.050;13.758;2022-08-06T00:12:21;18.90;99.90
17879;DHT22;9065;51.050;13.758;2022-08-06T00:14:49;18.90;99.90
17879;DHT22;9065;51.050;13.758;2022-08-06T00:17:17;18.90;99.90
17879;DHT22;9065;51.050;13.758;2022-08-06T00:19:46;18.90;99.90
17879;DHT22;9065;51.050;13.758;2022-08-06T00:22:14;18.90;99.90
17879;DHT22;9065;51.050;13.758;2022-08-06T00:24:42;18.80;99.90
17879;DHT22;9065;51.050;13.758;2022-08-06T00:27:09;18.80;99.90
17879;DHT22;9065;51.050;13.758;2022-08-06T00:29:37;18.70;99.90
17879;DHT22;9065;51.050;13.758;2022-08-06T00:32:05;18.70;99.90
17879;DHT22;9065;51.050;13.758;2022-08-06T00:34:32;18.60;99.90
17879;DHT22;9065;51.050;13.758;2022-08-06T00:36:59;18.60;99.90
17879;DHT22;9065;51.050;13.758;2022-08-06T00:39:26;18.50;99.90
17879;DHT22;9065;51.050;13.758;2022-08-06T00:41:54;18.50;99.90
17879;DHT22;9065;51.050;13.758;2022-08-06T00:44:21;18.40;99.90
17879;DHT22;9065;51.050;13.758;2022-08-06T00:46:51;18.40;99.90
17879;DHT22;9065;51.050;13.758;2022-08-06T00:49:18;18.50;99.90
17879;DHT22;9065;51.050;13.758;2022-08-06T00:51:45;18.30;99.90
17879;DHT22;9065;51.050;13.758;2022-08-06T00:54:14;18.20;99.90
17879;DHT22;9065;51.050;13.758;2022-08-06T00:56:41;18.20;99.90
17879;DHT22;9065;51.050;13.758;2022-08-06T00:59:08;18.00;99.90
17879;DHT22;9065;51.050;13.758;2022-08-06T01:01:34;18.10;99.90
17879;DHT22;9065;51.050;13.758;2022-08-06T01:04:04;18.10;99.90
17879;DHT22;9065;51.050;13.758;2022-08-06T01:06:31;18.20;99.90
17879;DHT22;9065;51.050;13.758;2022-08-06T01:08:59;18.10;99.90
17879;DHT22;9065;51.050;13.758;2022-08-06T01:11:28;18.20;99.90
17879;DHT22;9065;51.050;13.758;2022-08-06T01:13:55;18.20;99.90
17879;DHT22;9065;51.050;13.758;2022-08-06T01:16:26;18.20;99.90
17879;DHT22;9065;51.050;13.758;2022-08-06T01:18:59;18.20;99.90
17879;DHT22;9065;51.050;13.758;2022-08-06T01:21:50;18.20;99.90
17879;DHT22;9065;51.050;13.758;2022-08-06T01:27:40;18.20;99.90
17879;DHT22;9065;51.050;13.758;2022-08-06T01:30:12;18.20;99.90
17879;DHT22;9065;51.050;13.758;2022-08-06T01:32:45;18.20;99.90
17879;DHT22;9065;51.050;13.758;2022-08-06T01:35:18;18.20;99.90
17879;DHT22;9065;51.050;13.758;2022-08-06T01:37:52;18.30;99.90
17879;DHT22;9065;51.050;13.758;2022-08-06T01:40:29;18.30;99.90
17879;DHT22;9065;51.050;13.758;2022-08-06T01:43:02;18.30;99.90
17879;DHT22;9065;51.050;13.758;2022-08-06T01:45:33;18.30;99.90
17879;DHT22;9065;51.050;13.758;2022-08-06T01:48:03;18.20;99.90
17879;DHT22;9065;51.050;13.758;2022-08-06T01:50:34;18.20;99.90
17879;DHT22;9065;51.050;13.758;2022-08-06T01:53:04;18.30;99.90
17879;DHT22;9065;51.050;13.758;2022-08-06T01:55:35;18.30;99.90
17879;DHT22;9065;51.050;13.758;2022-08-06T01:58:06;18.40;99.90
17879;DHT22;9065;51.050;13.758;2022-08-06T02:00:40;18.30;99.90
17879;DHT22;9065;51.050;13.758;2022-08-06T02:03:12;18.30;99.90
17879;DHT22;9065;51.050;13.758;2022-08-06T02:05:53;18.30;99.90
17879;DHT22;9065;51.050;13.758;2022-08-06T02:08:22;18.30;99.90
17879;DHT22;9065;51.050;13.758;2022-08-06T02:10:53;18.30;99.90
17879;DHT22;9065;51.050;13.758;2022-08-06T02:13:25;18.30;99.90
17879;DHT22;9065;51.050;13.758;2022-08-06T02:15:58;18.30;99.90
17879;DHT22;9065;51.050;13.758;2022-08-06T02:18:27;18.30;99.90
17879;DHT22;9065;51.050;13.758;2022-08-06T02:20:56;18.30;99.90
17879;DHT22;9065;51.050;13.758;2022-08-06T02:23:27;18.30;99.90
17879;DHT22;9065;51.050;13.758;2022-08-06T02:25:55;18.30;99.90
17879;DHT22;9065;51.050;13.758;2022-08-06T02:28:26;18.30;99.90
17879;DHT22;9065;51.050;13.758;2022-08-06T02:30:57;18.30;99.90
17879;DHT22;9065;51.050;13.758;2022-08-06T02:33:26;18.30;99.90
17879;DHT22;9065;51.050;13.758;2022-08-06T02:35:58;18.30;99.90
17879;DHT22;9065;51.050;13.758;2022-08-06T02:38:35;18.20;99.90
17879;DHT22;9065;51.050;13.758;2022-08-06T02:41:11;18.10;99.90
17879;DHT22;9065;51.050;13.758;2022-08-06T02:43:46;18.00;99.90
17879;DHT22;9065;51.050;13.758;2022-08-06T02:46:21;18.00;99.90
17879;DHT22;9065;51.050;13.758;2022-08-06T02:48:54;18.00;99.90
17879;DHT22;9065;51.050;13.758;2022-08-06T02:51:27;18.00;99.90
17879;DHT22;9065;51.050;13.758;2022-08-06T02:53:58;18.00;99.90
17879;DHT22;9065;51.050;13.758;2022-08-06T02:56:28;18.00;99.90
17879;DHT22;9065;51.050;13.758;2022-08-06T02:58:59;18.00;99.90
17879;DHT22;9065;51.050;13.758;2022-08-06T03:01:31;18.00;99.90
17879;DHT22;9065;51.050;13.758;2022-08-06T03:04:00;17.90;99.90
17879;DHT22;9065;51.050;13.758;2022-08-06T03:06:32;17.90;99.90
17879;DHT22;9065;51.050;13.758;2022-08-06T03:09:02;17.80;99.90
17879;DHT22;9065;51.050;13.758;2022-08-06T03:11:33;17.80;99.90
17879;DHT22;9065;51.050;13.758;2022-08-06T03:14:03;17.80;99.90
17879;DHT22;9065;51.050;13.758;2022-08-06T03:16:34;17.80;99.90
17879;DHT22;9065;51.050;13.758;2022-08-06T03:19:03;17.70;99.90
17879;DHT22;9065;51.050;13.758;2022-08-06T03:21:32;17.80;99.90
17879;DHT22;9065;51.050;13.758;2022-08-06T03:24:00;17.80;99.90
17879;DHT22;9065;51.050;13.758;2022-08-06T03:26:29;17.80;99.90
17879;DHT22;9065;51.050;13.758;2022-08-06T03:29:00;17.80;99.90
17879;DHT22;9065;51.050;13.758;2022-08-06T03:31:28;17.80;99.90
17879;DHT22;9065;51.050;13.758;2022-08-06T03:33:57;17.60;99.90
17879;DHT22;9065;51.050;13.758;2022-08-06T03:36:25;17.60;99.90
17879;DHT22;9065;51.050;13.758;2022-08-06T03:38:56;17.50;99.90
17879;DHT22;9065;51.050;13.758;2022-08-06T03:41:24;17.50;99.90
17879;DHT22;9065;51.050;13.758;2022-08-06T03:43:53;17.50;99.90
17879;DHT22;9065;51.050;13.758;2022-08-06T03:46:26;17.50;99.90
17879;DHT22;9065;51.050;13.758;2022-08-06T03:48:54;17.50;99.90
17879;DHT22;9065;51.050;13.758;2022-08-06T03:51:26;17.50;99.90
17879;DHT22;9065;51.050;13.758;2022-08-06T03:53:54;17.40;99.90
17879;DHT22;9065;51.050;13.758;2022-08-06T03:56:26;17.40;99.90
17879;DHT22;9065;51.050;13.758;2022-08-06T03:59:00;17.30;99.90
17879;DHT22;9065;51.050;13.758;2022-08-06T04:01:31;17.30;99.90
17879;DHT22;9065;51.050;13.758;2022-08-06T04:04:05;17.30;99.90
17879;DHT22;9065;51.050;13.758;2022-08-06T04:06:33;17.20;99.90
17879;DHT22;9065;51.050;13.758;2022-08-06T04:09:00;17.10;99.90
17879;DHT22;9065;51.050;13.758;2022-08-06T04:11:31;17.00;99.90
17879;DHT22;9065;51.050;13.758;2022-08-06T04:14:09;17.00;99.90
17879;DHT22;9065;51.050;13.758;2022-08-06T04:16:41;17.00;99.90
17879;DHT22;9065;51.050;13.758;2022-08-06T04:19:10;17.00;99.90
17879;DHT22;9065;51.050;13.758;2022-08-06T04:21:38;17.00;99.90
17879;DHT22;9065;51.050;13.758;2022-08-06T04:24:05;17.00;99.90
17879;DHT22;9065;51.050;13.758;2022-08-06T04:26:34;17.00;99.90
17879;DHT22;9065;51.050;13.758;2022-08-06T04:29:03;17.00;99.90
17879;DHT22;9065;51.050;13.758;2022-08-06T04:31:33;17.00;99.90
17879;DHT22;9065;51.050;13.758;2022-08-06T04:34:03;17.00;99.90
17879;DHT22;9065;51.050;13.758;2022-08-06T04:36:32;17.00;99.90
17879;DHT22;9065;51.050;13.758;2022-08-06T04:39:00;16.90;99.90
17879;DHT22;9065;51.050;13.758;2022-08-06T04:41:28;16.90;99.90
17879;DHT22;9065;51.050;13.758;2022-08-06T04:43:55;16.90;99.90
17879;DHT22;9065;51.050;13.758;2022-08-06T04:46:22;16.90;99.90
17879;DHT22;9065;51.050;13.758;2022-08-06T04:48:50;16.90;99.90
17879;DHT22;9065;51.050;13.758;2022-08-06T04:51:24;16.80;99.90
17879;DHT22;9065;51.050;13.758;2022-08-06T04:53:51;16.90;99.90
17879;DHT22;9065;51.050;13.758;2022-08-06T04:56:19;16.80;99.90
17879;DHT22;9065;51.050;13.758;2022-08-06T04:58:47;16.80;99.90
17879;DHT22;9065;51.050;13.758;2022-08-06T05:01:14;16.90;99.90
17879;DHT22;9065;51.050;13.758;2022-08-06T05:03:41;16.90;99.90
17879;DHT22;9065;51.050;13.758;2022-08-06T05:06:19;16.90;99.90
17879;DHT22;9065;51.050;13.758;2022-08-06T05:08:55;17.00;99.90
17879;DHT22;9065;51.050;13.758;2022-08-06T05:11:28;16.90;99.90
17879;DHT22;9065;51.050;13.758;2022-08-06T05:13:59;16.90;99.90
17879;DHT22;9065;51.050;13.758;2022-08-06T05:16:27;16.90;99.90
17879;DHT22;9065;51.050;13.758;2022-08-06T05:19:01;17.00;99.90
17879;DHT22;9065;51.050;13.758;2022-08-06T05:21:35;17.00;99.90
17879;DHT22;9065;51.050;13.758;2022-08-06T05:24:04;17.10;99.90
17879;DHT22;9065;51.050;13.758;2022-08-06T05:26:33;17.20;99.90
17879;DHT22;9065;51.050;13.758;2022-08-06T05:29:00;17.30;99.90
17879;DHT22;9065;51.050;13.758;2022-08-06T05:31:32;17.30;99.90
17879;DHT22;9065;51.050;13.758;2022-08-06T05:34:01;17.30;99.90
17879;DHT22;9065;51.050;13.758;2022-08-06T05:36:39;17.40;99.90
17879;DHT22;9065;51.050;13.758;2022-08-06T05:39:07;17.50;99.90
17879;DHT22;9065;51.050;13.758;2022-08-06T05:41:41;17.60;99.90
17879;DHT22;9065;51.050;13.758;2022-08-06T05:44:22;17.70;99.90
17879;DHT22;9065;51.050;13.758;2022-08-06T05:46:52;17.80;99.90
17879;DHT22;9065;51.050;13.758;2022-08-06T05:49:25;17.90;99.90
17879;DHT22;9065;51.050;13.758;2022-08-06T05:51:59;18.00;99.90
17879;DHT22;9065;51.050;13.758;2022-08-06T05:54:33;18.10;99.90
17879;DHT22;9065;51.050;13.758;2022-08-06T05:57:11;18.10;99.90
17879;DHT22;9065;51.050;13.758;2022-08-06T05:59:44;18.20;99.90
17879;DHT22;9065;51.050;13.758;2022-08-06T06:02:13;18.20;99.90
17879;DHT22;9065;51.050;13.758;2022-08-06T06:04:46;18.30;99.90
17879;DHT22;9065;51.050;13.758;2022-08-06T06:07:14;18.30;99.90
17879;DHT22;9065;51.050;13.758;2022-08-06T06:09:45;18.20;99.90
17879;DHT22;9065;51.050;13.758;2022-08-06T06:12:16;18.20;99.90
17879;DHT22;9065;51.050;13.758;2022-08-06T06:14:45;18.30;99.90
17879;DHT22;9065;51.050;13.758;2022-08-06T06:17:25;18.30;99.90
17879;DHT22;9065;51.050;13.758;2022-08-06T06:20:11;18.50;99.90
17879;DHT22;9065;51.050;13.758;2022-08-06T06:22:58;18.40;99.90
17879;DHT22;9065;51.050;13.758;2022-08-06T06:25:33;18.40;99.90
17879;DHT22;9065;51.050;13.758;2022-08-06T06:28:15;18.40;99.90
17879;DHT22;9065;51.050;13.758;2022-08-06T06:30:49;18.40;99.90
17879;DHT22;9065;51.050;13.758;2022-08-06T06:33:22;18.40;99.90
17879;DHT22;9065;51.050;13.758;2022-08-06T06:35:59;18.30;99.90
17879;DHT22;9065;51.050;13.758;2022-08-06T06:38:38;18.40;99.90
17879;DHT22;9065;51.050;13.758;2022-08-06T06:41:14;18.40;99.90
17879;DHT22;9065;51.050;13.758;2022-08-06T06:43:48;18.50;99.90
17879;DHT22;9065;51.050;13.758;2022-08-06T06:46:21;18.60;99.90
17879;DHT22;9065;51.050;13.758;2022-08-06T06:48:51;18.70;99.90
17879;DHT22;9065;51.050;13.758;2022-08-06T06:51:26;18.80;99.90
17879;DHT22;9065;51.050;13.758;2022-08-06T06:53:55;18.80;99.90
17879;DHT22;9065;51.050;13.758;2022-08-06T06:56:36;18.80;99.90
17879;DHT22;9065;51.050;13.758;2022-08-06T06:59:10;18.90;99.90
17879;DHT22;9065;51.050;13.758;2022-08-06T07:01:40;18.90;99.90
17879;DHT22;9065;51.050;13.758;2022-08-06T07:04:10;18.80;99.90
17879;DHT22;9065;51.050;13.758;2022-08-06T07:06:40;18.90;99.90
17879;DHT22;9065;51.050;13.758;2022-08-06T07:09:14;19.00;99.90
17879;DHT22;9065;51.050;13.758;2022-08-06T07:11:45;18.90;99.90
17879;DHT22;9065;51.050;13.758;2022-08-06T07:14:14;19.00;99.90
17879;DHT22;9065;51.050;13.758;2022-08-06T07:16:41;19.20;99.90
17879;DHT22;9065;51.050;13.758;2022-08-06T07:19:12;19.20;99.90
17879;DHT22;9065;51.050;13.758;2022-08-06T07:21:42;19.30;99.90
17879;DHT22;9065;51.050;13.758;2022-08-06T07:24:11;19.40;99.90
17879;DHT22;9065;51.050;13.758;2022-08-06T07:26:41;19.60;99.90
17879;DHT22;9065;51.050;13.758;2022-08-06T07:29:11;19.80;99.90
17879;DHT22;9065;51.050;13.758;2022-08-06T07:31:41;19.80;99.90
17879;DHT22;9065;51.050;13.758;2022-08-06T07:34:09;19.90;99.90
17879;DHT22;9065;51.050;13.758;2022-08-06T07:36:43;20.10;99.90
17879;DHT22;9065;51.050;13.758;2022-08-06T07:39:17;20.20;99.90
17879;DHT22;9065;51.050;13.758;2022-08-06T07:41:47;20.60;99.90
17879;DHT22;9065;51.050;13.758;2022-08-06T07:44:17;20.90;99.90
17879;DHT22;9065;51.050;13.758;2022-08-06T07:46:54;21.10;99.90
17879;DHT22;9065;51.050;13.758;2022-08-06T07:49:25;20.80;99.90
17879;DHT22;9065;51.050;13.758;2022-08-06T07:51:58;20.80;99.90
17879;DHT22;9065;51.050;13.758;2022-08-06T07:54:26;21.20;99.90
17879;DHT22;9065;51.050;13.758;2022-08-06T07:56:56;21.60;99.90
17879;DHT22;9065;51.050;13.758;2022-08-06T07:59:27;22.00;99.90
17879;DHT22;9065;51.050;13.758;2022-08-06T08:01:57;22.50;99.90
17879;DHT22;9065;51.050;13.758;2022-08-06T08:04:24;22.60;99.90
17879;DHT22;9065;51.050;13.758;2022-08-06T08:07:10;23.00;99.90
17879;DHT22;9065;51.050;13.758;2022-08-06T08:09:39;23.20;99.90
17879;DHT22;9065;51.050;13.758;2022-08-06T08:12:07;22.90;99.90
17879;DHT22;9065;51.050;13.758;2022-08-06T08:14:37;23.10;99.90
17879;DHT22;9065;51.050;13.758;2022-08-06T08:17:06;23.40;99.90
17879;DHT22;9065;51.050;13.758;2022-08-06T08:19:33;23.60;99.90
17879;DHT22;9065;51.050;13.758;2022-08-06T08:22:05;23.70;99.90
17879;DHT22;9065;51.050;13.758;2022-08-06T08:24:34;23.90;99.90
17879;DHT22;9065;51.050;13.758;2022-08-06T08:27:01;24.10;99.90
17879;DHT22;9065;51.050;13.758;2022-08-06T08:29:29;24.60;99.90
17879;DHT22;9065;51.050;13.758;2022-08-06T08:31:58;24.30;99.90
17879;DHT22;9065;51.050;13.758;2022-08-06T08:34:26;24.00;99.90
17879;DHT22;9065;51.050;13.758;2022-08-06T08:37:00;23.80;99.90
17879;DHT22;9065;51.050;13.758;2022-08-06T08:39:28;23.70;99.90
17879;DHT22;9065;51.050;13.758;2022-08-06T08:42:02;23.80;99.90
17879;DHT22;9065;51.050;13.758;2022-08-06T08:44:34;24.00;99.90
17879;DHT22;9065;51.050;13.758;2022-08-06T08:47:05;23.80;99.90
17879;DHT22;9065;51.050;13.758;2022-08-06T08:49:38;23.80;99.90
17879;DHT22;9065;51.050;13.758;2022-08-06T08:52:08;23.70;99.90
17879;DHT22;9065;51.050;13.758;2022-08-06T08:54:36;23.60;99.90
17879;DHT22;9065;51.050;13.758;2022-08-06T08:57:07;23.70;99.90
17879;DHT22;9065;51.050;13.758;2022-08-06T08:59:37;23.80;99.90
17879;DHT22;9065;51.050;13.758;2022-08-06T09:02:12;23.80;99.90
17879;DHT22;9065;51.050;13.758;2022-08-06T09:04:41;23.80;99.90
17879;DHT22;9065;51.050;13.758;2022-08-06T09:07:09;24.00;99.90
17879;DHT22;9065;51.050;13.758;2022-08-06T09:09:37;24.30;99.90
17879;DHT22;9065;51.050;13.758;2022-08-06T09:12:05;24.30;99.90
17879;DHT22;9065;51.050;13.758;2022-08-06T09:14:34;24.10;99.90
17879;DHT22;9065;51.050;13.758;2022-08-06T09:17:02;23.80;99.90
17879;DHT22;9065;51.050;13.758;2022-08-06T09:19:31;23.80;99.90
17879;DHT22;9065;51.050;13.758;2022-08-06T09:21:59;23.80;99.90
17879;DHT22;9065;51.050;13.758;2022-08-06T09:24:27;23.90;99.90
17879;DHT22;9065;51.050;13.758;2022-08-06T09:27:05;24.20;99.90
17879;DHT22;9065;51.050;13.758;2022-08-06T09:29:35;24.30;99.90
17879;DHT22;9065;51.050;13.758;2022-08-06T09:32:03;24.30;99.90
17879;DHT22;9065;51.050;13.758;2022-08-06T09:34:35;24.10;99.90
17879;DHT22;9065;51.050;13.758;2022-08-06T09:37:02;24.00;99.90
17879;DHT22;9065;51.050;13.758;2022-08-06T09:39:33;24.10;99.90
17879;DHT22;9065;51.050;13.758;2022-08-06T09:42:06;24.20;99.90
17879;DHT22;9065;51.050;13.758;2022-08-06T09:44:33;24.20;99.90
17879;DHT22;9065;51.050;13.758;2022-08-06T09:47:00;24.40;99.90
17879;DHT22;9065;51.050;13.758;2022-08-06T09:49:44;24.50;99.90
17879;DHT22;9065;51.050;13.758;2022-08-06T09:52:15;24.60;99.90
17879;DHT22;9065;51.050;13.758;2022-08-06T09:54:44;24.90;99.90
17879;DHT22;9065;51.050;13.758;2022-08-06T09:57:13;25.50;99.90
17879;DHT22;9065;51.050;13.758;2022-08-06T09:59:45;25.00;99.90
17879;DHT22;9065;51.050;13.758;2022-08-06T10:02:13;24.20;99.90
17879;DHT22;9065;51.050;13.758;2022-08-06T10:04:41;24.10;99.90
17879;DHT22;9065;51.050;13.758;2022-08-06T10:07:10;24.70;99.90
17879;DHT22;9065;51.050;13.758;2022-08-06T10:09:51;25.20;99.90
17879;DHT22;9065;51.050;13.758;2022-08-06T10:12:21;26.00;99.90
17879;DHT22;9065;51.050;13.758;2022-08-06T10:14:49;27.00;99.90
17879;DHT22;9065;51.050;13.758;2022-08-06T10:17:18;28.10;99.90
17879;DHT22;9065;51.050;13.758;2022-08-06T10:19:46;28.60;99.90
17879;DHT22;9065;51.050;13.758;2022-08-06T10:22:18;29.20;99.90
17879;DHT22;9065;51.050;13.758;2022-08-06T10:24:46;29.40;99.00
17879;DHT22;9065;51.050;13.758;2022-08-06T10:27:20;29.90;97.70
17879;DHT22;9065;51.050;13.758;2022-08-06T10:29:50;30.10;96.50
17879;DHT22;9065;51.050;13.758;2022-08-06T10:32:22;32.10;96.30
17879;DHT22;9065;51.050;13.758;2022-08-06T10:34:51;32.70;92.90
17879;DHT22;9065;51.050;13.758;2022-08-06T10:37:21;32.30;91.80
17879;DHT22;9065;51.050;13.758;2022-08-06T10:39:55;32.70;91.00
17879;DHT22;9065;51.050;13.758;2022-08-06T10:42:23;33.10;90.80
17879;DHT22;9065;51.050;13.758;2022-08-06T10:44:52;33.30;87.50
17879;DHT22;9065;51.050;13.758;2022-08-06T10:47:21;33.70;86.60
17879;DHT22;9065;51.050;13.758;2022-08-06T10:49:52;34.80;83.20
17879;DHT22;9065;51.050;13.758;2022-08-06T10:52:23;34.70;80.10
17879;DHT22;9065;51.050;13.758;2022-08-06T10:54:50;33.10;81.50
17879;DHT22;9065;51.050;13.758;2022-08-06T10:57:18;32.20;83.20
17879;DHT22;9065;51.050;13.758;2022-08-06T10:59:46;31.80;84.40
17879;DHT22;9065;51.050;13.758;2022-08-06T11:02:23;30.90;85.20
17879;DHT22;9065;51.050;13.758;2022-08-06T11:04:55;30.90;86.30
17879;DHT22;9065;51.050;13.758;2022-08-06T11:07:59;30.80;85.70
17879;DHT22;9065;51.050;13.758;2022-08-06T11:10:47;30.80;85.70
17879;DHT22;9065;51.050;13.758;2022-08-06T11:13:30;30.10;85.80
17879;DHT22;9065;51.050;13.758;2022-08-06T11:15:57;29.40;87.30
17879;DHT22;9065;51.050;13.758;2022-08-06T11:18:27;28.90;88.80
17879;DHT22;9065;51.050;13.758;2022-08-06T11:20:54;29.10;89.70
17879;DHT22;9065;51.050;13.758;2022-08-06T11:23:28;29.30;89.40
17879;DHT22;9065;51.050;13.758;2022-08-06T11:25:57;29.50;88.20
17879;DHT22;9065;51.050;13.758;2022-08-06T11:28:56;29.50;87.90
17879;DHT22;9065;51.050;13.758;2022-08-06T11:31:34;29.40;87.30
17879;DHT22;9065;51.050;13.758;2022-08-06T11:34:04;29.50;87.40
17879;DHT22;9065;51.050;13.758;2022-08-06T11:36:51;29.00;86.80
17879;DHT22;9065;51.050;13.758;2022-08-06T11:39:21;28.70;86.30
17879;DHT22;9065;51.050;13.758;2022-08-06T11:41:58;28.30;87.30
17879;DHT22;9065;51.050;13.758;2022-08-06T11:44:30;27.60;87.50
17879;DHT22;9065;51.050;13.758;2022-08-06T11:47:10;27.40;88.40
17879;DHT22;9065;51.050;13.758;2022-08-06T11:49:39;27.40;89.00
17879;DHT22;9065;51.050;13.758;2022-08-06T11:52:07;27.20;88.00
17879;DHT22;9065;51.050;13.758;2022-08-06T11:54:36;26.80;87.30
17879;DHT22;9065;51.050;13.758;2022-08-06T11:57:24;26.60;88.10
17879;DHT22;9065;51.050;13.758;2022-08-06T12:00:09;26.70;88.60
17879;DHT22;9065;51.050;13.758;2022-08-06T12:02:47;26.40;88.30
17879;DHT22;9065;51.050;13.758;2022-08-06T12:05:36;26.50;89.90
17879;DHT22;9065;51.050;13.758;2022-08-06T12:08:20;26.70;88.80
17879;DHT22;9065;51.050;13.758;2022-08-06T12:13:59;26.60;88.10
17879;DHT22;9065;51.050;13.758;2022-08-06T12:16:31;26.60;88.50
17879;DHT22;9065;51.050;13.758;2022-08-06T12:19:01;26.50;88.00
17879;DHT22;9065;51.050;13.758;2022-08-06T12:21:31;26.20;88.10
17879;DHT22;9065;51.050;13.758;2022-08-06T12:23:59;26.20;89.90
17879;DHT22;9065;51.050;13.758;2022-08-06T12:26:30;26.20;90.10
17879;DHT22;9065;51.050;13.758;2022-08-06T12:29:05;25.90;89.70
17879;DHT22;9065;51.050;13.758;2022-08-06T12:31:37;25.80;89.90
17879;DHT22;9065;51.050;13.758;2022-08-06T12:34:05;25.60;90.30
17879;DHT22;9065;51.050;13.758;2022-08-06T12:36:35;25.50;90.30
17879;DHT22;9065;51.050;13.758;2022-08-06T12:39:06;25.60;90.20
17879;DHT22;9065;51.050;13.758;2022-08-06T12:41:38;25.50;90.00
17879;DHT22;9065;51.050;13.758;2022-08-06T12:44:11;25.50;90.50
17879;DHT22;9065;51.050;13.758;2022-08-06T12:46:39;25.30;90.20
17879;DHT22;9065;51.050;13.758;2022-08-06T12:49:07;25.20;90.20
17879;DHT22;9065;51.050;13.758;2022-08-06T12:51:34;25.20;90.30
17879;DHT22;9065;51.050;13.758;2022-08-06T12:54:05;25.20;90.40
17879;DHT22;9065;51.050;13.758;2022-08-06T12:56:38;25.20;90.20
17879;DHT22;9065;51.050;13.758;2022-08-06T12:59:11;25.10;90.50
17879;DHT22;9065;51.050;13.758;2022-08-06T13:01:44;25.20;90.50
17879;DHT22;9065;51.050;13.758;2022-08-06T13:04:14;25.00;90.30
17879;DHT22;9065;51.050;13.758;2022-08-06T13:06:41;25.00;90.90
17879;DHT22;9065;51.050;13.758;2022-08-06T13:09:09;25.00;90.90
17879;DHT22;9065;51.050;13.758;2022-08-06T13:11:36;25.00;91.30
17879;DHT22;9065;51.050;13.758;2022-08-06T13:14:10;25.10;90.90
17879;DHT22;9065;51.050;13.758;2022-08-06T13:16:45;25.10;90.90
17879;DHT22;9065;51.050;13.758;2022-08-06T13:19:15;25.10;90.60
17879;DHT22;9065;51.050;13.758;2022-08-06T13:21:44;25.00;90.90
17879;DHT22;9065;51.050;13.758;2022-08-06T13:24:12;25.00;90.80
17879;DHT22;9065;51.050;13.758;2022-08-06T13:26:52;25.10;91.30
17879;DHT22;9065;51.050;13.758;2022-08-06T13:29:24;25.10;90.60
17879;DHT22;9065;51.050;13.758;2022-08-06T13:32:03;25.10;90.60
17879;DHT22;9065;51.050;13.758;2022-08-06T13:34:45;24.90;90.70
17879;DHT22;9065;51.050;13.758;2022-08-06T13:37:14;25.00;91.00
17879;DHT22;9065;51.050;13.758;2022-08-06T13:39:52;25.00;90.50
17879;DHT22;9065;51.050;13.758;2022-08-06T13:42:19;25.00;90.20
17879;DHT22;9065;51.050;13.758;2022-08-06T13:44:48;24.80;89.80
17879;DHT22;9065;51.050;13.758;2022-08-06T13:47:28;24.70;90.60
17879;DHT22;9065;51.050;13.758;2022-08-06T13:49:56;24.80;90.50
17879;DHT22;9065;51.050;13.758;2022-08-06T13:52:22;24.80;90.40
17879;DHT22;9065;51.050;13.758;2022-08-06T13:54:49;24.80;90.00
17879;DHT22;9065;51.050;13.758;2022-08-06T13:57:16;24.80;89.50
17879;DHT22;9065;51.050;13.758;2022-08-06T13:59:44;24.80;90.10
17879;DHT22;9065;51.050;13.758;2022-08-06T14:02:14;24.90;90.40
17879;DHT22;9065;51.050;13.758;2022-08-06T14:04:41;24.80;90.10
17879;DHT22;9065;51.050;13.758;2022-08-06T14:07:08;24.80;90.00
17879;DHT22;9065;51.050;13.758;2022-08-06T14:09:35;24.90;90.30
17879;DHT22;9065;51.050;13.758;2022-08-06T14:12:02;24.90;90.00
17879;DHT22;9065;51.050;13.758;2022-08-06T14:14:32;24.90;90.20
17879;DHT22;9065;51.050;13.758;2022-08-06T14:17:00;24.90;90.10
17879;DHT22;9065;51.050;13.758;2022-08-06T14:19:34;24.80;90.40
17879;DHT22;9065;51.050;13.758;2022-08-06T14:22:01;24.80;90.30
17879;DHT22;9065;51.050;13.758;2022-08-06T14:24:28;24.80;90.10
17879;DHT22;9065;51.050;13.758;2022-08-06T14:26:55;24.70;90.20
17879;DHT22;9065;51.050;13.758;2022-08-06T14:29:23;24.70;90.40
17879;DHT22;9065;51.050;13.758;2022-08-06T14:31:52;24.90;90.50
17879;DHT22;9065;51.050;13.758;2022-08-06T14:34:19;24.80;90.10
17879;DHT22;9065;51.050;13.758;2022-08-06T14:36:48;24.70;90.40
17879;DHT22;9065;51.050;13.758;2022-08-06T14:39:15;24.80;90.70
17879;DHT22;9065;51.050;13.758;2022-08-06T14:41:42;24.80;90.90
17879;DHT22;9065;51.050;13.758;2022-08-06T14:44:26;24.70;90.60
17879;DHT22;9065;51.050;13.758;2022-08-06T14:47:10;24.70;90.70
17879;DHT22;9065;51.050;13.758;2022-08-06T14:49:39;24.70;90.80
17879;DHT22;9065;51.050;13.758;2022-08-06T14:52:10;24.70;90.50
17879;DHT22;9065;51.050;13.758;2022-08-06T14:54:40;24.70;90.40
17879;DHT22;9065;51.050;13.758;2022-08-06T14:57:09;24.70;90.00
17879;DHT22;9065;51.050;13.758;2022-08-06T14:59:36;24.60;90.20
17879;DHT22;9065;51.050;13.758;2022-08-06T15:02:04;24.60;90.20
17879;DHT22;9065;51.050;13.758;2022-08-06T15:04:33;24.60;90.20
17879;DHT22;9065;51.050;13.758;2022-08-06T15:07:00;24.70;90.30
17879;DHT22;9065;51.050;13.758;2022-08-06T15:09:30;24.70;90.20
17879;DHT22;9065;51.050;13.758;2022-08-06T15:11:57;24.50;89.70
17879;DHT22;9065;51.050;13.758;2022-08-06T15:14:26;24.50;90.40
17879;DHT22;9065;51.050;13.758;2022-08-06T15:16:53;24.50;90.10
17879;DHT22;9065;51.050;13.758;2022-08-06T15:19:23;24.50;90.00
17879;DHT22;9065;51.050;13.758;2022-08-06T15:21:50;24.50;90.00
17879;DHT22;9065;51.050;13.758;2022-08-06T15:24:18;24.40;89.50
17879;DHT22;9065;51.050;13.758;2022-08-06T15:26:47;24.40;90.10
17879;DHT22;9065;51.050;13.758;2022-08-06T15:29:22;24.50;90.00
17879;DHT22;9065;51.050;13.758;2022-08-06T15:31:50;24.40;89.90
17879;DHT22;9065;51.050;13.758;2022-08-06T15:34:24;24.40;90.10
17879;DHT22;9065;51.050;13.758;2022-08-06T15:36:55;24.40;90.40
17879;DHT22;9065;51.050;13.758;2022-08-06T15:39:25;24.40;90.70
17879;DHT22;9065;51.050;13.758;2022-08-06T15:41:54;24.30;90.10
17879;DHT22;9065;51.050;13.758;2022-08-06T15:44:28;24.30;89.70
17879;DHT22;9065;51.050;13.758;2022-08-06T15:46:56;24.30;90.20
17879;DHT22;9065;51.050;13.758;2022-08-06T15:49:24;24.20;90.20
17879;DHT22;9065;51.050;13.758;2022-08-06T15:51:52;24.20;90.10
17879;DHT22;9065;51.050;13.758;2022-08-06T15:54:20;24.20;90.30
17879;DHT22;9065;51.050;13.758;2022-08-06T15:56:49;24.30;90.30
17879;DHT22;9065;51.050;13.758;2022-08-06T15:59:19;24.30;90.30
17879;DHT22;9065;51.050;13.758;2022-08-06T16:01:48;24.30;90.20